首页
METAR-TAF:

METAR-TAF

机场 :

魁北克让·勒萨热国际机场

魁北克, 魁北克, 加拿大

纬度: 46-48N, 经度: 071-23W, 海拔: 70米

当前天气观测

该预报发布于47分钟前的08:00 UTC
风速12节,风向东转东北
温度 4°C
湿度 70%
气压 1021 hPa
能見度: 24.1公里
少量云层高于6000英尺

METAR: CYQB 230800Z 07012KT 15SM FEW060 04/M01 A3016 RMK SC1 SC TR SLP217

时间: 04:47 (08:47 UTC)

预报

该预报发布于3小时和9分钟前的05:38 UTC
预报有效从23日的 06点(UTC)到 24日的 06点(UTC)
风速8节,风向
能見度: 10公里
天空无云
成为
从 23日的 10点(UTC)到 23日的 12点(UTC)
风速15节,风向东转东北,有时为25节阵风
从 23日的 1200点(UTC)
风速15节,风向东转东北,有时为25节阵风
能見度: 10公里
多云层高于12000英尺
从 23日的 1800点(UTC)
风速15节,风向东转东北,有时为25节阵风
能見度: 10公里
散云层高于2000英尺
短暂存在
从 23日的 18点(UTC)到 23日的 21点(UTC)
多云层高于2000英尺
从 23日的 2100点(UTC)
风速15节,风向东转东北,有时为25节阵风
能見度: 10公里
多云层高于3000英尺
短暂存在
从 23日的 21点(UTC)到 24日的 03点(UTC)
多云层高于2000英尺
从 24日的 0300点(UTC)
风速15节,风向东转东北,有时为25节阵风
能見度: 8.0公里
阴天层高于1200英尺
小雨, 轻雾

TAF: CYQB 230538Z 2306/2406 08008KT P6SM SKC BECMG 2310/2312 07015G25KT FM231200 07015G25KT P6SM BKN120 FM231800 07015G25KT P6SM SCT020 TEMPO 2318/2321 BKN020 FM232100 07015G25KT P6SM BKN030 TEMPO 2321/2403 BKN020 FM240300 07015G25KT 5SM -RA BR OVC012 RMK NXT FCST BY 231200Z

超过4000个机场的气象观测和天气预报(METAR&TAF报告)。

可查询的气象台以黄色和红色小点在地图上表示。

将鼠标移到小点上方,可查看气象台名称。

然后点击查看天气观测和预报。

如需切换地图:点击带黑十字的绿色按钮放大地图;点击带横线的绿色按钮缩小地图;或者点击绿色箭头查看邻近地区的地图。


METAR-TAF: